createdAt,value
2018-03-26T00:02:19.199Z,48.30
2018-03-26T00:04:46.686Z,44.64
2018-03-26T00:07:15.894Z,46.04
2018-03-26T00:09:44.185Z,43.94
2018-03-26T00:12:12.447Z,43.52
2018-03-26T00:14:39.934Z,41.34
2018-03-26T00:17:08.231Z,45.52
2018-03-26T00:19:36.500Z,43.64
2018-03-26T00:22:04.797Z,43.70
2018-03-26T00:24:33.086Z,41.28
2018-03-26T00:27:01.360Z,41.30
2018-03-26T00:29:29.647Z,40.56
2018-03-26T00:31:57.915Z,37.78
2018-03-26T00:34:26.232Z,43.26
2018-03-26T00:36:54.500Z,39.92
2018-03-26T00:39:22.806Z,37.44
2018-03-26T00:41:51.132Z,39.70
2018-03-26T00:44:19.386Z,37.62
2018-03-26T00:46:46.883Z,38.44
2018-03-26T00:49:15.883Z,42.32
2018-03-26T00:51:44.150Z,37.72
2018-03-26T00:54:12.448Z,37.58
2018-03-26T00:56:40.710Z,37.80
2018-03-26T00:59:08.981Z,33.20
2018-03-26T01:01:37.266Z,36.66
2018-03-26T01:04:05.525Z,33.20
2018-03-26T01:06:33.834Z,34.14
2018-03-26T01:09:02.100Z,29.28
2018-03-26T01:11:30.404Z,32.08
2018-03-26T01:13:58.694Z,32.96
2018-03-26T01:16:26.970Z,29.12
2018-03-26T01:18:55.271Z,31.16
2018-03-26T01:21:23.534Z,28.58
2018-03-26T01:23:51.865Z,28.98
2018-03-26T01:26:20.150Z,29.62
2018-03-26T01:28:48.446Z,29.20
2018-03-26T01:31:16.715Z,31.32
2018-03-26T01:33:46.340Z,30.50
2018-03-26T01:36:14.599Z,33.16
2018-03-26T01:38:42.854Z,27.80
2018-03-26T01:41:11.139Z,30.20
2018-03-26T01:43:39.390Z,27.70
2018-03-26T01:46:07.683Z,33.42
2018-03-26T01:48:35.941Z,31.40
2018-03-26T01:51:04.235Z,31.74
2018-03-26T01:53:32.486Z,28.90
2018-03-26T01:56:00.733Z,30.92
2018-03-26T01:58:29.013Z,32.00
2018-03-26T02:00:57.262Z,33.86
2018-03-26T02:03:25.545Z,31.10
2018-03-26T02:05:53.798Z,37.16
2018-03-26T02:08:22.067Z,32.10
2018-03-26T02:10:50.361Z,32.46
2018-03-26T02:13:18.654Z,33.56
2018-03-26T02:15:46.937Z,34.36
2018-03-26T02:18:16.429Z,33.88
2018-03-26T02:20:44.678Z,35.90
2018-03-26T02:23:12.967Z,33.20
2018-03-26T02:25:41.223Z,34.24
2018-03-26T02:28:09.510Z,36.02
2018-03-26T02:30:37.754Z,34.74
2018-03-26T02:33:06.030Z,33.28
2018-03-26T02:35:34.310Z,34.86
2018-03-26T02:38:02.623Z,36.40
2018-03-26T02:40:30.878Z,35.68
2018-03-26T02:42:59.138Z,37.50
2018-03-26T02:45:27.799Z,35.16
2018-03-26T02:47:56.050Z,36.08
2018-03-26T02:50:25.236Z,37.44
2018-03-26T02:52:53.486Z,36.48
2018-03-26T02:55:21.769Z,37.46
2018-03-26T02:57:50.014Z,36.28
2018-03-26T03:00:18.313Z,36.00
2018-03-26T03:02:46.569Z,37.26
2018-03-26T03:05:15.801Z,37.98
2018-03-26T03:07:44.085Z,36.96
2018-03-26T03:10:12.367Z,37.96
2018-03-26T03:12:40.653Z,41.28
2018-03-26T03:15:08.902Z,39.82
2018-03-26T03:17:37.184Z,40.50
2018-03-26T03:20:05.442Z,40.44
2018-03-26T03:22:33.796Z,43.92
2018-03-26T03:25:01.238Z,40.04
2018-03-26T03:27:29.518Z,40.40
2018-03-26T03:29:57.791Z,41.28
2018-03-26T03:32:26.073Z,40.50
2018-03-26T03:34:54.325Z,43.30
2018-03-26T03:37:22.610Z,40.76
2018-03-26T03:39:50.871Z,43.34
2018-03-26T03:42:19.154Z,41.52
2018-03-26T03:44:47.441Z,46.12
2018-03-26T03:47:15.686Z,43.84
2018-03-26T03:49:43.961Z,38.62
2018-03-26T03:52:12.218Z,40.28
2018-03-26T03:54:40.496Z,40.34
2018-03-26T03:57:08.776Z,40.40
2018-03-26T03:59:37.066Z,39.38
2018-03-26T04:02:05.337Z,39.82
2018-03-26T04:04:33.595Z,43.12
2018-03-26T04:07:01.872Z,41.74
2018-03-26T04:09:30.132Z,45.12
2018-03-26T04:11:58.418Z,41.78
2018-03-26T04:14:25.916Z,40.72
2018-03-26T04:16:54.198Z,40.50
2018-03-26T04:19:22.451Z,37.32
2018-03-26T04:21:50.733Z,41.34
2018-03-26T04:24:18.989Z,41.48
2018-03-26T04:26:47.270Z,41.82
2018-03-26T04:29:15.535Z,42.96
2018-03-26T04:31:43.798Z,41.82
2018-03-26T04:34:12.081Z,43.22
2018-03-26T04:36:40.333Z,40.80
2018-03-26T04:39:08.614Z,45.06
2018-03-26T04:41:36.913Z,39.74
2018-03-26T04:44:05.204Z,41.20
2018-03-26T04:46:33.446Z,40.72
2018-03-26T04:49:01.829Z,44.64
2018-03-26T04:51:30.074Z,44.04
2018-03-26T04:53:58.328Z,41.10
2018-03-26T04:56:26.608Z,40.94
2018-03-26T04:58:54.861Z,43.50
2018-03-26T05:01:23.109Z,41.28
2018-03-26T05:03:51.398Z,42.76
2018-03-26T05:06:20.462Z,41.58
2018-03-26T05:08:49.583Z,38.74
2018-03-26T05:11:18.679Z,38.84
2018-03-26T05:13:46.938Z,39.38
2018-03-26T05:16:15.522Z,42.50
2018-03-26T05:18:43.774Z,36.54
2018-03-26T05:21:12.066Z,36.64
2018-03-26T05:23:40.370Z,41.56
2018-03-26T05:26:20.138Z,40.90
2018-03-26T05:28:49.466Z,38.70
2018-03-26T05:31:19.406Z,41.30
2018-03-26T05:33:47.681Z,39.02
2018-03-26T05:36:16.007Z,39.40
2018-03-26T05:38:44.268Z,36.64
2018-03-26T05:41:12.556Z,34.60
2018-03-26T05:43:40.810Z,33.26
2018-03-26T05:46:09.081Z,36.28
2018-03-26T05:48:37.338Z,38.02
2018-03-26T05:51:05.635Z,36.66
2018-03-26T05:53:33.917Z,37.00
2018-03-26T05:56:02.161Z,35.80
2018-03-26T05:58:30.454Z,35.58
2018-03-26T06:00:58.736Z,37.42
2018-03-26T06:03:27.051Z,35.02
2018-03-26T06:05:55.307Z,40.78
2018-03-26T06:08:23.558Z,40.44
2018-03-26T06:10:51.854Z,40.78
2018-03-26T06:13:20.111Z,40.04
2018-03-26T06:15:49.509Z,41.98
2018-03-26T06:18:19.376Z,38.70
2018-03-26T06:20:49.321Z,36.58
2018-03-26T06:23:17.594Z,36.58
2018-03-26T06:25:45.886Z,41.08
2018-03-26T06:28:14.165Z,39.40
2018-03-26T06:30:42.501Z,38.32
2018-03-26T06:33:10.734Z,38.12
2018-03-26T06:35:38.992Z,36.60
2018-03-26T06:38:12.998Z,36.04
2018-03-26T06:40:41.269Z,36.34
2018-03-26T06:43:09.523Z,37.08
2018-03-26T06:45:37.805Z,34.22
2018-03-26T06:48:06.058Z,32.02
2018-03-26T06:50:34.335Z,35.68
2018-03-26T06:53:02.617Z,34.74
2018-03-26T06:55:30.886Z,34.02
2018-03-26T06:57:59.143Z,34.54
2018-03-26T07:00:28.295Z,33.74
2018-03-26T07:02:56.554Z,31.82
2018-03-26T07:05:24.817Z,35.58
2018-03-26T07:07:53.110Z,26.98
2018-03-26T07:10:21.378Z,32.38
2018-03-26T07:12:50.982Z,25.44
2018-03-26T07:15:20.107Z,31.20
2018-03-26T07:17:49.420Z,27.02
2018-03-26T07:20:17.701Z,28.90
2018-03-26T07:22:45.949Z,25.14
2018-03-26T07:25:14.238Z,26.80
2018-03-26T07:27:42.535Z,28.86
2018-03-26T07:30:10.831Z,29.12
2018-03-26T07:32:39.081Z,31.00
2018-03-26T07:35:07.362Z,27.42
2018-03-26T07:37:35.642Z,29.36
2018-03-26T07:40:03.889Z,28.40
2018-03-26T07:42:32.178Z,29.74
2018-03-26T07:45:00.446Z,28.82
2018-03-26T07:47:28.716Z,30.12
2018-03-26T07:49:56.998Z,27.84
2018-03-26T07:52:25.253Z,26.52
2018-03-26T07:54:53.533Z,29.16
2018-03-26T07:57:21.811Z,28.32
2018-03-26T07:59:50.094Z,29.94
2018-03-26T08:02:19.613Z,28.20
2018-03-26T08:04:48.630Z,25.86
2018-03-26T08:07:16.916Z,26.80
2018-03-26T08:09:45.197Z,24.10
2018-03-26T08:12:13.446Z,24.20
2018-03-26T08:14:41.734Z,26.22
2018-03-26T08:17:10.072Z,26.82
2018-03-26T08:19:38.278Z,25.12
2018-03-26T08:22:05.762Z,25.34
2018-03-26T08:24:34.048Z,23.32
2018-03-26T08:27:01.571Z,22.82
2018-03-26T08:29:29.827Z,24.18
2018-03-26T08:31:58.106Z,23.30
2018-03-26T08:34:26.395Z,24.52
2018-03-26T08:36:54.674Z,23.30
2018-03-26T08:39:22.971Z,21.56
2018-03-26T08:41:50.454Z,25.70
2018-03-26T08:44:19.815Z,25.42
2018-03-26T08:46:48.119Z,20.04
2018-03-26T08:49:16.402Z,22.56
2018-03-26T08:51:44.668Z,22.10
2018-03-26T08:54:12.943Z,22.36
2018-03-26T08:56:41.208Z,22.56
2018-03-26T08:59:09.494Z,21.16
2018-03-26T09:01:37.760Z,20.60
2018-03-26T09:04:06.057Z,21.68
2018-03-26T09:06:34.315Z,21.64
2018-03-26T09:09:02.605Z,19.38
2018-03-26T09:11:30.897Z,20.88
2018-03-26T09:13:59.170Z,20.82
2018-03-26T09:16:27.450Z,18.84
2018-03-26T09:18:55.742Z,19.84
2018-03-26T09:21:23.269Z,16.16
2018-03-26T09:23:50.766Z,18.58
2018-03-26T09:26:19.026Z,19.20
2018-03-26T09:28:47.305Z,16.82
2018-03-26T09:31:15.603Z,17.10
2018-03-26T09:33:43.859Z,18.96
2018-03-26T09:36:12.142Z,19.50
2018-03-26T09:38:40.390Z,17.34
2018-03-26T09:41:07.902Z,17.46
2018-03-26T09:43:36.162Z,16.52
2018-03-26T09:46:04.454Z,15.38
2018-03-26T09:48:32.703Z,15.00
2018-03-26T09:51:00.942Z,15.82
2018-03-26T09:53:29.239Z,14.18
2018-03-26T09:55:58.490Z,11.72
2018-03-26T09:58:26.778Z,10.52
2018-03-26T10:01:00.606Z,12.52
2018-03-26T10:03:28.901Z,12.00
2018-03-26T10:06:00.502Z,14.02
2018-03-26T10:08:28.777Z,11.48
2018-03-26T10:10:58.034Z,14.78
2018-03-26T10:13:26.316Z,12.96
2018-03-26T10:15:56.519Z,13.00
2018-03-26T10:18:24.765Z,13.48
2018-03-26T10:20:52.283Z,13.84
2018-03-26T10:23:20.566Z,12.08
2018-03-26T10:25:49.766Z,10.78
2018-03-26T10:28:18.442Z,13.08
2018-03-26T10:30:56.614Z,12.28
2018-03-26T10:33:24.893Z,8.54
2018-03-26T10:35:54.098Z,8.28
2018-03-26T10:38:24.400Z,8.72
2018-03-26T10:40:52.846Z,10.20
2018-03-26T10:43:21.132Z,9.96
2018-03-26T10:45:50.161Z,9.74
2018-03-26T10:48:18.975Z,11.92
2018-03-26T10:50:47.230Z,9.32
2018-03-26T10:53:15.512Z,8.70
2018-03-26T10:55:44.805Z,7.62
2018-03-26T10:58:13.057Z,6.30
2018-03-26T11:00:41.342Z,5.82
2018-03-26T11:03:09.621Z,6.14
2018-03-26T11:05:39.921Z,6.40
2018-03-26T11:08:08.143Z,7.24
2018-03-26T11:10:37.430Z,6.20
2018-03-26T11:13:05.694Z,5.36
2018-03-26T11:15:34.950Z,4.02
2018-03-26T11:18:03.194Z,5.82
2018-03-26T11:20:31.513Z,4.80
2018-03-26T11:23:03.372Z,4.76
2018-03-26T11:25:31.654Z,5.34
2018-03-26T11:27:59.969Z,4.88
2018-03-26T11:30:28.215Z,4.52
2018-03-26T11:32:55.699Z,3.48
2018-03-26T11:35:23.994Z,4.42
2018-03-26T11:37:52.247Z,3.78
2018-03-26T11:40:20.525Z,3.02
2018-03-26T11:42:48.794Z,4.14
2018-03-26T11:45:17.083Z,3.26
2018-03-26T11:47:45.339Z,3.82
2018-03-26T11:50:13.622Z,3.96
2018-03-26T11:52:41.865Z,4.08
2018-03-26T11:55:09.383Z,3.62
2018-03-26T11:57:37.622Z,3.38
2018-03-26T12:00:05.914Z,4.06
2018-03-26T12:02:34.190Z,4.56
2018-03-26T12:05:02.437Z,4.28
2018-03-26T12:07:30.706Z,3.92
2018-03-26T12:09:58.967Z,3.96
2018-03-26T12:12:27.263Z,4.46
2018-03-26T12:14:55.515Z,4.22
2018-03-26T12:17:23.773Z,3.30
2018-03-26T12:20:03.930Z,4.02
2018-03-26T12:22:32.173Z,3.86
2018-03-26T12:25:21.961Z,3.96
2018-03-26T12:28:01.978Z,4.62
2018-03-26T12:30:30.222Z,3.52
2018-03-26T12:32:58.497Z,4.00
2018-03-26T12:35:38.477Z,3.72
2018-03-26T12:38:06.760Z,4.86
2018-03-26T12:40:46.788Z,4.02
2018-03-26T12:43:15.035Z,3.50
2018-03-26T12:46:05.051Z,4.02
2018-03-26T12:48:33.297Z,4.08
2018-03-26T12:51:13.317Z,4.36
2018-03-26T12:53:41.590Z,4.72
2018-03-26T12:56:09.837Z,4.08
2018-03-26T12:58:50.474Z,3.94
2018-03-26T13:01:30.549Z,4.12
2018-03-26T13:03:58.789Z,4.52
2018-03-26T13:06:27.037Z,3.70
2018-03-26T13:08:55.309Z,4.18
2018-03-26T13:11:23.566Z,4.30
2018-03-26T13:13:51.847Z,4.78
2018-03-26T13:16:20.117Z,4.58
2018-03-26T13:18:49.627Z,4.18
2018-03-26T13:21:18.698Z,4.76
2018-03-26T13:23:46.982Z,3.92
2018-03-26T13:26:15.222Z,4.76
2018-03-26T13:28:43.522Z,4.84
2018-03-26T13:31:11.781Z,5.36
2018-03-26T13:33:40.028Z,5.30
2018-03-26T13:36:08.302Z,5.30
2018-03-26T13:38:36.546Z,5.20
2018-03-26T13:41:04.049Z,4.80
2018-03-26T13:43:32.337Z,4.40
2018-03-26T13:46:00.591Z,4.20
2018-03-26T13:48:28.837Z,4.80
2018-03-26T13:50:57.118Z,5.28
2018-03-26T13:53:25.375Z,4.80
2018-03-26T13:55:53.649Z,4.90
2018-03-26T13:58:21.902Z,4.82
2018-03-26T14:00:50.191Z,4.38
2018-03-26T14:03:19.410Z,4.96
2018-03-26T14:05:47.690Z,4.02
2018-03-26T14:08:28.797Z,5.92
2018-03-26T14:11:08.879Z,4.70
2018-03-26T14:13:58.761Z,4.50
2018-03-26T14:16:38.834Z,5.08
2018-03-26T14:19:07.127Z,5.58
2018-03-26T14:21:35.373Z,6.26
2018-03-26T14:24:03.678Z,4.86
2018-03-26T14:26:31.910Z,5.28
2018-03-26T14:29:00.201Z,6.28
2018-03-26T14:31:28.449Z,6.30
2018-03-26T14:33:56.705Z,5.52
2018-03-26T14:36:24.986Z,5.84
2018-03-26T14:38:53.257Z,5.86
2018-03-26T14:41:21.498Z,6.00
2018-03-26T14:43:51.074Z,6.12
2018-03-26T14:46:20.644Z,5.26
2018-03-26T14:48:49.742Z,5.68
2018-03-26T14:51:18.347Z,6.44
2018-03-26T14:53:46.626Z,5.56
2018-03-26T14:56:14.911Z,6.72
2018-03-26T14:58:43.162Z,5.90
2018-03-26T15:01:11.432Z,6.48
2018-03-26T15:03:39.714Z,5.74
2018-03-26T15:06:07.974Z,6.08
2018-03-26T15:08:36.258Z,5.92
2018-03-26T15:11:04.517Z,6.62
2018-03-26T15:13:32.803Z,6.98
2018-03-26T15:16:01.049Z,6.50
2018-03-26T15:18:29.330Z,6.42
2018-03-26T15:20:57.574Z,6.64
2018-03-26T15:23:25.863Z,7.30
2018-03-26T15:25:54.119Z,6.40
2018-03-26T15:28:22.394Z,7.30
2018-03-26T15:30:50.650Z,6.64
2018-03-26T15:33:19.806Z,6.94
2018-03-26T15:35:48.082Z,9.58
2018-03-26T15:38:16.367Z,7.04
2018-03-26T15:40:44.627Z,6.86
2018-03-26T15:43:12.915Z,7.86
2018-03-26T15:45:41.209Z,7.40
2018-03-26T15:48:09.458Z,7.20
2018-03-26T15:50:37.706Z,7.38
2018-03-26T15:53:05.977Z,7.62
2018-03-26T15:55:34.226Z,8.12
2018-03-26T15:58:01.734Z,8.24
2018-03-26T16:00:29.999Z,7.02
2018-03-26T16:03:04.049Z,8.10
2018-03-26T16:05:32.335Z,16.76
2018-03-26T16:08:00.600Z,11.68
2018-03-26T16:10:28.890Z,7.08
2018-03-26T16:12:57.139Z,7.98
2018-03-26T16:15:25.429Z,7.80
2018-03-26T16:17:53.679Z,7.50
2018-03-26T16:20:21.929Z,7.70
2018-03-26T16:22:50.207Z,7.16
2018-03-26T16:25:17.695Z,8.60
2018-03-26T16:27:45.974Z,7.32
2018-03-26T16:30:14.221Z,7.94
2018-03-26T16:32:42.510Z,8.20
2018-03-26T16:35:10.766Z,7.86
2018-03-26T16:37:39.037Z,8.16
2018-03-26T16:40:07.326Z,6.32
2018-03-26T16:42:44.406Z,8.60
2018-03-26T16:45:12.686Z,7.58
2018-03-26T16:47:40.934Z,7.34
2018-03-26T16:50:09.228Z,7.36
2018-03-26T16:52:37.490Z,8.58
2018-03-26T16:55:05.766Z,8.86
2018-03-26T16:57:33.250Z,8.18
2018-03-26T17:00:01.531Z,7.78
2018-03-26T17:02:29.793Z,7.70
2018-03-26T17:04:58.081Z,8.90
2018-03-26T17:07:26.336Z,7.92
2018-03-26T17:09:54.598Z,7.64
2018-03-26T17:12:22.884Z,7.66
2018-03-26T17:14:50.468Z,7.88
2018-03-26T17:17:19.615Z,6.82
2018-03-26T17:19:48.478Z,8.22
2018-03-26T17:22:16.768Z,9.06
2018-03-26T17:24:45.027Z,8.76
2018-03-26T17:27:13.306Z,7.44
2018-03-26T17:29:41.622Z,7.74
2018-03-26T17:32:09.119Z,9.20
2018-03-26T17:34:37.382Z,8.08
2018-03-26T17:37:05.666Z,8.30
2018-03-26T17:39:33.914Z,8.62
2018-03-26T17:42:02.206Z,7.64
2018-03-26T17:44:30.458Z,7.66
2018-03-26T17:46:58.738Z,6.48
2018-03-26T17:49:26.999Z,8.26
2018-03-26T17:51:55.271Z,7.72
2018-03-26T17:54:23.519Z,8.36
2018-03-26T17:56:51.793Z,7.92
2018-03-26T17:59:20.042Z,7.54
2018-03-26T18:01:49.558Z,7.28
2018-03-26T18:04:22.341Z,6.74
2018-03-26T18:06:50.618Z,8.62
2018-03-26T18:09:19.294Z,7.08
2018-03-26T18:11:46.814Z,7.66
2018-03-26T18:14:15.069Z,8.30
2018-03-26T18:16:43.346Z,6.80
2018-03-26T18:19:11.603Z,7.32
2018-03-26T18:21:40.801Z,6.84
2018-03-26T18:24:09.094Z,7.00
2018-03-26T18:26:37.379Z,8.28
2018-03-26T18:29:05.634Z,7.50
2018-03-26T18:31:34.051Z,7.84
2018-03-26T18:34:02.294Z,8.04
2018-03-26T18:36:30.578Z,8.86
2018-03-26T18:38:58.822Z,8.08
2018-03-26T18:41:29.057Z,9.64
2018-03-26T18:43:57.311Z,9.60
2018-03-26T18:46:25.591Z,8.34
2018-03-26T18:48:54.799Z,9.46
2018-03-26T18:51:23.078Z,10.12
2018-03-26T18:53:52.263Z,9.12
2018-03-26T18:56:20.546Z,9.66
2018-03-26T18:58:52.092Z,10.78
2018-03-26T19:01:20.249Z,11.22
2018-03-26T19:03:49.354Z,10.78
2018-03-26T19:06:17.642Z,11.08
2018-03-26T19:08:46.886Z,11.52
2018-03-26T19:11:15.139Z,12.10
2018-03-26T19:13:49.873Z,11.44
2018-03-26T19:16:18.506Z,11.98
2018-03-26T19:18:46.774Z,12.24
2018-03-26T19:21:14.291Z,10.80
2018-03-26T19:23:44.485Z,11.64
2018-03-26T19:26:12.771Z,11.94
2018-03-26T19:28:41.025Z,12.04
2018-03-26T19:31:09.381Z,11.58
2018-03-26T19:33:37.638Z,11.00
2018-03-26T19:36:05.911Z,11.24
2018-03-26T19:38:34.182Z,11.48
2018-03-26T19:41:01.707Z,11.16
2018-03-26T19:43:29.195Z,12.56
2018-03-26T19:45:57.486Z,12.86
2018-03-26T19:48:25.733Z,12.38
2018-03-26T19:50:55.942Z,11.70
2018-03-26T19:53:24.222Z,11.54
2018-03-26T19:55:54.453Z,11.74
2018-03-26T19:58:22.711Z,11.74
2018-03-26T20:00:52.014Z,11.28
2018-03-26T20:03:20.273Z,11.96
2018-03-26T20:05:49.758Z,10.70
2018-03-26T20:08:18.635Z,12.04
2018-03-26T20:10:48.613Z,11.80
2018-03-26T20:13:16.906Z,11.90
2018-03-26T20:15:46.099Z,13.20
2018-03-26T20:18:14.370Z,12.32
2018-03-26T20:20:46.376Z,12.40
2018-03-26T20:23:14.688Z,12.38
2018-03-26T20:25:42.917Z,12.22
2018-03-26T20:28:11.202Z,12.78
2018-03-26T20:30:39.487Z,12.38
2018-03-26T20:33:07.734Z,12.62
2018-03-26T20:35:36.010Z,12.52
2018-03-26T20:38:04.290Z,12.66
2018-03-26T20:40:32.552Z,13.26
2018-03-26T20:43:00.077Z,12.34
2018-03-26T20:45:28.330Z,12.46
2018-03-26T20:47:55.837Z,14.14
2018-03-26T20:50:24.082Z,14.48
2018-03-26T20:52:52.368Z,13.98
2018-03-26T20:55:20.626Z,13.52
2018-03-26T20:57:49.654Z,13.92
2018-03-26T21:00:18.557Z,14.18
2018-03-26T21:02:46.834Z,14.70
2018-03-26T21:05:15.078Z,14.58
2018-03-26T21:07:43.366Z,14.32
2018-03-26T21:10:12.566Z,14.56
2018-03-26T21:12:40.096Z,13.50
2018-03-26T21:15:12.519Z,12.98
2018-03-26T21:17:40.805Z,14.14
2018-03-26T21:20:16.354Z,14.84
2018-03-26T21:22:44.647Z,15.96
2018-03-26T21:25:16.737Z,15.80
2018-03-26T21:27:45.068Z,16.62
2018-03-26T21:30:13.310Z,15.44
2018-03-26T21:32:41.559Z,14.06
2018-03-26T21:35:09.841Z,13.56
2018-03-26T21:37:38.089Z,16.36
2018-03-26T21:40:07.266Z,15.14
2018-03-26T21:42:36.542Z,14.54
2018-03-26T21:45:04.868Z,13.62
2018-03-26T21:47:33.118Z,17.18
2018-03-26T21:50:01.404Z,18.04
2018-03-26T21:52:29.646Z,16.02
2018-03-26T21:54:57.882Z,15.96
2018-03-26T21:57:25.398Z,15.24
2018-03-26T21:59:53.650Z,18.38
2018-03-26T22:02:21.935Z,17.12
2018-03-26T22:04:50.185Z,16.64
2018-03-26T22:07:19.101Z,15.78
2018-03-26T22:09:47.350Z,16.32
2018-03-26T22:12:19.600Z,15.64
2018-03-26T22:14:48.664Z,15.80
2018-03-26T22:17:24.358Z,15.28
2018-03-26T22:19:52.605Z,15.26
2018-03-26T22:22:20.907Z,17.24
2018-03-26T22:24:50.081Z,16.26
2018-03-26T22:27:19.270Z,16.98
2018-03-26T22:29:47.551Z,16.38
2018-03-26T22:32:15.029Z,15.58
2018-03-26T22:34:43.306Z,13.78
2018-03-26T22:37:11.554Z,16.48
2018-03-26T22:39:56.765Z,17.14
2018-03-26T22:42:24.246Z,15.90
2018-03-26T22:44:52.522Z,15.80
2018-03-26T22:47:20.766Z,18.12
2018-03-26T22:49:49.451Z,16.90
2018-03-26T22:52:17.706Z,18.42
2018-03-26T22:54:45.962Z,17.70
2018-03-26T22:57:14.238Z,16.36
2018-03-26T22:59:42.497Z,17.54
2018-03-26T23:02:10.775Z,18.00
2018-03-26T23:04:39.032Z,16.94
2018-03-26T23:07:07.321Z,17.78
2018-03-26T23:09:39.918Z,17.62
2018-03-26T23:12:08.190Z,17.26
2018-03-26T23:14:36.466Z,16.52
2018-03-26T23:17:06.658Z,16.38
2018-03-26T23:19:34.941Z,18.16
2018-03-26T23:22:04.186Z,16.54
2018-03-26T23:24:32.437Z,17.72
2018-03-26T23:27:00.718Z,17.64
2018-03-26T23:29:28.970Z,17.46
2018-03-26T23:31:57.254Z,17.92
2018-03-26T23:34:26.023Z,18.60
2018-03-26T23:36:53.547Z,16.52
2018-03-26T23:39:21.797Z,18.34
2018-03-26T23:41:50.622Z,17.26
2018-03-26T23:44:19.897Z,19.34
2018-03-26T23:46:48.160Z,18.72
2018-03-26T23:49:16.431Z,19.72
2018-03-26T23:51:44.678Z,20.44
2018-03-26T23:54:12.958Z,20.52
2018-03-26T23:56:50.602Z,20.34
2018-03-26T23:59:19.707Z,19.48
